createdAt,value
2023-08-07T00:00:00.084Z,3.95
2023-08-07T00:02:27.446Z,4.38
2023-08-07T00:04:54.673Z,4.25
2023-08-07T00:07:21.767Z,4.25
2023-08-07T00:09:49.116Z,4.07
2023-08-07T00:12:16.236Z,4.65
2023-08-07T00:14:43.414Z,4.07
2023-08-07T00:17:10.438Z,3.67
2023-08-07T00:19:37.451Z,4.45
2023-08-07T00:22:04.603Z,4.60
2023-08-07T00:24:32.067Z,4.00
2023-08-07T00:26:59.424Z,4.40
2023-08-07T00:29:26.481Z,3.92
2023-08-07T00:31:53.787Z,4.32
2023-08-07T00:34:20.924Z,3.95
2023-08-07T00:36:48.552Z,4.57
2023-08-07T00:39:15.503Z,4.25
2023-08-07T00:41:42.619Z,4.13
2023-08-07T00:44:09.857Z,4.78
2023-08-07T00:46:37.929Z,4.28
2023-08-07T00:49:05.221Z,4.10
2023-08-07T00:51:32.734Z,4.07
2023-08-07T00:54:01.962Z,4.35
2023-08-07T00:56:29.667Z,4.65
2023-08-07T00:58:56.770Z,4.60
2023-08-07T01:01:24.613Z,4.72
2023-08-07T01:03:51.900Z,5.07
2023-08-07T01:06:18.947Z,4.75
2023-08-07T01:08:47.184Z,4.80
2023-08-07T01:11:30.845Z,4.50
2023-08-07T01:16:36.880Z,3.92
2023-08-07T01:19:05.720Z,4.45
2023-08-07T01:21:34.095Z,4.60
2023-08-07T01:24:01.185Z,5.13
2023-08-07T01:26:28.305Z,4.50
2023-08-07T01:29:33.399Z,4.30
2023-08-07T01:32:06.450Z,4.97
2023-08-07T01:34:35.765Z,4.78
2023-08-07T01:37:04.691Z,5.25
2023-08-07T01:39:32.780Z,4.95
2023-08-07T01:42:01.994Z,5.22
2023-08-07T01:44:28.968Z,4.45
2023-08-07T01:46:56.239Z,5.90
2023-08-07T01:49:23.566Z,4.70
2023-08-07T01:51:50.569Z,4.47
2023-08-07T01:54:17.646Z,4.78
2023-08-07T01:56:44.602Z,4.72
2023-08-07T01:59:11.751Z,5.63
2023-08-07T02:01:38.873Z,5.57
2023-08-07T02:04:05.862Z,5.32
2023-08-07T02:06:32.996Z,5.35
2023-08-07T02:09:00.112Z,4.75
2023-08-07T02:11:27.150Z,4.38
2023-08-07T02:13:56.241Z,4.97
2023-08-07T02:16:23.406Z,4.78
2023-08-07T02:18:50.628Z,5.10
2023-08-07T02:21:37.629Z,4.18
2023-08-07T02:24:04.920Z,4.90
2023-08-07T02:26:32.447Z,4.63
2023-08-07T02:29:00.244Z,4.03
2023-08-07T02:31:27.242Z,4.32
2023-08-07T02:33:55.234Z,5.20
2023-08-07T02:36:22.409Z,4.53
2023-08-07T02:38:49.467Z,5.55
2023-08-07T02:41:16.519Z,4.78
2023-08-07T02:43:44.217Z,5.78
2023-08-07T02:46:11.595Z,6.00
2023-08-07T02:48:38.622Z,5.32
2023-08-07T02:51:05.934Z,5.22
2023-08-07T02:53:33.286Z,5.25
2023-08-07T02:56:00.448Z,5.53
2023-08-07T02:58:27.634Z,5.10
2023-08-07T03:00:54.959Z,4.70
2023-08-07T03:03:22.110Z,5.95
2023-08-07T03:05:51.455Z,5.22
2023-08-07T03:08:18.890Z,5.65
2023-08-07T03:10:57.063Z,5.13
2023-08-07T03:13:26.934Z,5.25
2023-08-07T03:16:07.450Z,5.70
2023-08-07T03:18:35.707Z,6.13
2023-08-07T03:21:03.185Z,5.03
2023-08-07T03:23:30.438Z,5.38
2023-08-07T03:28:41.954Z,5.45
2023-08-07T03:31:09.860Z,5.13
2023-08-07T03:33:38.009Z,4.95
2023-08-07T03:36:05.520Z,5.22
2023-08-07T03:38:33.608Z,4.80
2023-08-07T03:41:01.034Z,4.60
2023-08-07T03:43:29.701Z,5.45
2023-08-07T03:46:02.960Z,5.20
2023-08-07T03:48:32.344Z,5.63
2023-08-07T03:51:05.917Z,5.90
2023-08-07T03:53:38.586Z,4.85
2023-08-07T03:56:06.005Z,5.18
2023-08-07T03:58:34.346Z,4.05
2023-08-07T04:01:01.632Z,4.40
2023-08-07T04:03:28.632Z,5.63
2023-08-07T04:05:56.571Z,5.07
2023-08-07T04:08:24.154Z,3.78
2023-08-07T04:11:06.741Z,6.70
2023-08-07T04:13:36.202Z,4.43
2023-08-07T04:16:05.878Z,5.07
2023-08-07T04:18:36.476Z,4.07
2023-08-07T04:21:04.784Z,3.75
2023-08-07T04:23:33.332Z,4.25
2023-08-07T04:26:00.678Z,3.95
2023-08-07T04:28:30.495Z,4.00
2023-08-07T04:30:57.538Z,4.35
2023-08-07T04:33:24.629Z,4.82
2023-08-07T04:35:51.771Z,4.60
2023-08-07T04:38:19.206Z,3.70
2023-08-07T04:40:50.583Z,4.05
2023-08-07T04:43:18.878Z,3.75
2023-08-07T04:45:48.580Z,4.05
2023-08-07T04:48:16.149Z,4.10
2023-08-07T04:50:43.415Z,4.18
2023-08-07T04:53:10.502Z,3.33
2023-08-07T04:55:37.565Z,3.65
2023-08-07T04:58:04.820Z,4.28
2023-08-07T05:00:32.034Z,3.33
2023-08-07T05:02:59.874Z,4.13
2023-08-07T05:05:27.081Z,3.50
2023-08-07T05:07:56.166Z,3.83
2023-08-07T05:10:23.237Z,3.63
2023-08-07T05:12:56.212Z,3.40
2023-08-07T05:15:25.046Z,4.25
2023-08-07T05:17:53.022Z,3.13
2023-08-07T05:20:20.116Z,3.88
2023-08-07T05:22:47.204Z,3.85
2023-08-07T05:25:17.058Z,4.05
2023-08-07T05:27:46.946Z,3.92
2023-08-07T05:30:15.286Z,4.45
2023-08-07T05:32:42.501Z,3.45
2023-08-07T05:35:10.174Z,3.40
2023-08-07T05:37:37.986Z,3.50
2023-08-07T05:40:06.464Z,3.88
2023-08-07T05:42:33.563Z,3.63
2023-08-07T05:45:00.512Z,3.67
2023-08-07T05:47:27.687Z,3.40
2023-08-07T05:49:55.045Z,3.20
2023-08-07T05:52:22.318Z,3.92
2023-08-07T05:54:49.276Z,3.67
2023-08-07T05:57:16.584Z,3.40
2023-08-07T05:59:43.635Z,3.15
2023-08-07T06:02:12.985Z,3.72
2023-08-07T06:04:40.395Z,3.20
2023-08-07T06:07:08.202Z,3.05
2023-08-07T06:09:36.647Z,3.47
2023-08-07T06:12:03.850Z,3.13
2023-08-07T06:14:31.374Z,3.25
2023-08-07T06:16:59.404Z,4.18
2023-08-07T06:19:32.020Z,3.25
2023-08-07T06:22:00.300Z,3.35
2023-08-07T06:24:27.624Z,3.65
2023-08-07T06:26:54.588Z,3.80
2023-08-07T06:29:21.880Z,3.63
2023-08-07T06:31:49.021Z,3.42
2023-08-07T06:34:16.204Z,4.53
2023-08-07T06:36:43.265Z,3.55
2023-08-07T06:39:10.634Z,3.38
2023-08-07T06:41:41.567Z,2.90
2023-08-07T06:44:09.596Z,3.70
2023-08-07T06:46:36.638Z,2.83
2023-08-07T06:49:03.652Z,4.47
2023-08-07T06:51:30.992Z,3.60
2023-08-07T06:53:58.001Z,5.10
2023-08-07T06:56:25.079Z,2.90
2023-08-07T06:58:52.094Z,3.53
2023-08-07T07:01:19.205Z,3.10
2023-08-07T07:03:48.245Z,3.97
2023-08-07T07:06:15.591Z,3.50
2023-08-07T07:08:42.686Z,3.92
2023-08-07T07:11:10.002Z,2.72
2023-08-07T07:13:37.680Z,4.13
2023-08-07T07:16:04.891Z,3.80
2023-08-07T07:18:32.392Z,2.92
2023-08-07T07:21:00.124Z,4.60
2023-08-07T07:23:28.599Z,2.83
2023-08-07T07:25:56.306Z,3.85
2023-08-07T07:28:23.640Z,3.25
2023-08-07T07:30:51.288Z,3.15
2023-08-07T07:33:18.415Z,3.47
2023-08-07T07:35:45.358Z,3.38
2023-08-07T07:38:12.538Z,4.22
2023-08-07T07:40:39.730Z,3.83
2023-08-07T07:43:06.684Z,4.00
2023-08-07T07:45:36.833Z,2.60
2023-08-07T07:48:05.260Z,3.28
2023-08-07T07:50:32.401Z,3.75
2023-08-07T07:52:59.563Z,3.78
2023-08-07T07:55:27.288Z,3.90
2023-08-07T07:57:55.897Z,2.88
2023-08-07T08:00:30.026Z,3.03
2023-08-07T08:02:57.155Z,4.13
2023-08-07T08:05:24.629Z,3.42
2023-08-07T08:07:51.629Z,3.15
2023-08-07T08:10:18.607Z,2.80
2023-08-07T08:12:46.265Z,2.63
2023-08-07T08:15:13.578Z,3.17
2023-08-07T08:17:41.443Z,2.70
2023-08-07T08:20:09.406Z,3.67
2023-08-07T08:22:36.949Z,3.75
2023-08-07T08:25:05.868Z,3.85
2023-08-07T08:27:33.121Z,3.03
2023-08-07T08:30:00.400Z,3.53
2023-08-07T08:32:27.617Z,3.90
2023-08-07T08:34:54.745Z,2.42
2023-08-07T08:37:21.750Z,3.70
2023-08-07T08:39:48.961Z,2.92
2023-08-07T08:42:16.990Z,2.80
2023-08-07T08:44:52.499Z,3.00
2023-08-07T08:47:19.808Z,5.53
2023-08-07T08:50:07.606Z,2.90
2023-08-07T08:52:36.747Z,3.05
2023-08-07T08:55:04.187Z,2.72
2023-08-07T08:57:31.624Z,3.35
2023-08-07T08:59:59.078Z,3.90
2023-08-07T09:02:26.858Z,3.03
2023-08-07T09:04:53.849Z,5.00
2023-08-07T09:07:22.044Z,3.17
2023-08-07T09:09:52.549Z,4.07
2023-08-07T09:12:27.024Z,3.47
2023-08-07T09:14:58.395Z,3.65
2023-08-07T09:17:30.895Z,3.78
2023-08-07T09:22:25.043Z,2.42
2023-08-07T09:24:52.110Z,2.80
2023-08-07T09:27:19.448Z,3.17
2023-08-07T09:29:47.942Z,2.25
2023-08-07T09:32:15.261Z,3.22
2023-08-07T09:34:43.567Z,3.22
2023-08-07T09:37:11.277Z,3.42
2023-08-07T09:39:38.746Z,3.38
2023-08-07T09:42:06.049Z,3.35
2023-08-07T09:44:39.184Z,2.83
2023-08-07T09:47:24.103Z,3.75
2023-08-07T09:49:55.843Z,3.00
2023-08-07T09:52:23.105Z,2.70
2023-08-07T09:54:50.123Z,2.90
2023-08-07T09:57:18.190Z,3.28
2023-08-07T09:59:51.460Z,2.80
2023-08-07T10:02:19.781Z,3.35
2023-08-07T10:04:47.150Z,3.00
2023-08-07T10:07:16.815Z,2.85
2023-08-07T10:09:44.184Z,3.30
2023-08-07T10:12:11.541Z,2.90
2023-08-07T10:14:38.683Z,3.05
2023-08-07T10:17:06.688Z,3.20
2023-08-07T10:19:33.851Z,2.67
2023-08-07T10:22:01.399Z,3.13
2023-08-07T10:24:29.950Z,2.75
2023-08-07T10:26:58.797Z,2.90
2023-08-07T10:29:27.849Z,3.35
2023-08-07T10:31:58.088Z,3.08
2023-08-07T10:34:25.220Z,3.47
2023-08-07T10:36:52.206Z,3.20
2023-08-07T10:39:19.490Z,2.50
2023-08-07T10:41:48.743Z,2.60
2023-08-07T10:44:23.554Z,3.17
2023-08-07T10:46:53.419Z,2.88
2023-08-07T10:49:41.625Z,2.92
2023-08-07T10:52:14.364Z,2.90
2023-08-07T10:54:51.485Z,2.95
2023-08-07T10:57:20.245Z,3.42
2023-08-07T11:00:01.118Z,2.92
2023-08-07T11:02:31.715Z,3.50
2023-08-07T11:04:59.248Z,3.55
2023-08-07T11:07:31.290Z,3.15
2023-08-07T11:10:00.315Z,3.10
2023-08-07T11:12:30.428Z,3.30
2023-08-07T11:14:58.222Z,3.50
2023-08-07T11:17:30.337Z,3.00
2023-08-07T11:19:57.886Z,2.90
2023-08-07T11:22:24.963Z,3.58
2023-08-07T11:24:52.620Z,3.28
2023-08-07T11:27:22.109Z,2.70
2023-08-07T11:29:50.421Z,3.63
2023-08-07T11:32:17.668Z,3.58
2023-08-07T11:34:52.131Z,3.20
2023-08-07T11:37:19.287Z,3.00
2023-08-07T11:39:46.669Z,4.03
2023-08-07T11:42:14.721Z,4.13
2023-08-07T11:44:42.212Z,3.33
2023-08-07T11:47:11.067Z,4.75
2023-08-07T11:49:41.219Z,3.25
2023-08-07T11:52:09.096Z,3.20
2023-08-07T11:54:36.106Z,3.38
2023-08-07T11:57:03.194Z,3.28
2023-08-07T11:59:30.964Z,3.60
2023-08-07T12:01:58.632Z,3.50
2023-08-07T12:04:25.888Z,3.47
2023-08-07T12:06:57.863Z,3.85
2023-08-07T12:09:27.308Z,3.05
2023-08-07T12:11:59.361Z,3.65
2023-08-07T12:14:37.104Z,3.72
2023-08-07T12:17:05.255Z,3.05
2023-08-07T12:19:40.097Z,4.03
2023-08-07T12:22:15.444Z,3.00
2023-08-07T12:24:44.073Z,3.28
2023-08-07T12:27:11.101Z,3.28
2023-08-07T12:29:38.235Z,3.80
2023-08-07T12:32:08.427Z,3.72
2023-08-07T12:34:36.375Z,3.58
2023-08-07T12:37:24.019Z,3.65
2023-08-07T12:44:50.780Z,3.22
2023-08-07T12:47:17.759Z,3.70
2023-08-07T12:49:47.326Z,3.50
2023-08-07T12:52:16.038Z,3.17
2023-08-07T12:58:58.435Z,3.20
2023-08-07T13:01:26.977Z,3.00
2023-08-07T13:03:54.230Z,2.85
2023-08-07T13:06:21.859Z,3.30
2023-08-07T13:08:48.878Z,3.00
2023-08-07T13:11:15.966Z,3.47
2023-08-07T13:13:45.668Z,3.53
2023-08-07T13:16:13.156Z,3.40
2023-08-07T13:18:40.157Z,3.30
2023-08-07T13:21:07.517Z,3.42
2023-08-07T13:23:37.252Z,3.85
2023-08-07T13:26:04.369Z,3.25
2023-08-07T13:28:31.889Z,3.40
2023-08-07T13:31:02.989Z,3.00
2023-08-07T13:33:32.512Z,3.33
2023-08-07T13:36:01.771Z,2.88
2023-08-07T13:38:29.065Z,3.05
2023-08-07T13:40:56.547Z,2.70
2023-08-07T13:43:23.955Z,3.22
2023-08-07T13:45:52.282Z,3.20
2023-08-07T13:48:22.372Z,3.67
2023-08-07T13:50:49.777Z,2.55
2023-08-07T13:53:17.239Z,2.95
2023-08-07T13:55:45.322Z,3.55
2023-08-07T13:58:12.748Z,3.17
2023-08-07T14:00:41.810Z,4.00
2023-08-07T14:03:14.264Z,3.50
2023-08-07T14:05:41.495Z,3.42
2023-08-07T14:08:15.247Z,3.70
2023-08-07T14:10:44.983Z,3.03
2023-08-07T14:13:13.158Z,3.20
2023-08-07T14:15:40.522Z,3.58
2023-08-07T14:18:33.904Z,2.78
2023-08-07T14:23:49.442Z,2.88
2023-08-07T14:26:17.220Z,3.28
2023-08-07T14:28:46.010Z,3.10
2023-08-07T14:31:13.633Z,3.53
2023-08-07T14:33:41.264Z,3.47
2023-08-07T14:36:08.586Z,3.17
2023-08-07T14:38:37.977Z,3.83
2023-08-07T14:41:05.218Z,3.13
2023-08-07T14:43:32.509Z,3.05
2023-08-07T14:46:00.108Z,3.30
2023-08-07T14:48:27.415Z,3.15
2023-08-07T14:50:54.863Z,3.92
2023-08-07T14:53:22.056Z,3.88
2023-08-07T14:55:49.443Z,3.10
2023-08-07T14:58:16.449Z,3.45
2023-08-07T15:00:43.675Z,2.63
2023-08-07T15:03:11.076Z,2.75
2023-08-07T15:05:38.271Z,3.45
2023-08-07T15:08:05.368Z,3.20
2023-08-07T15:10:32.855Z,3.05
2023-08-07T15:13:00.594Z,3.83
2023-08-07T15:15:28.121Z,3.38
2023-08-07T15:17:55.636Z,3.17
2023-08-07T15:20:23.340Z,3.15
2023-08-07T15:22:50.492Z,2.92
2023-08-07T15:25:21.484Z,2.97
2023-08-07T15:27:51.541Z,3.08
2023-08-07T15:30:22.086Z,3.03
2023-08-07T15:32:49.308Z,3.13
2023-08-07T15:35:17.025Z,3.20
2023-08-07T15:37:44.314Z,2.88
2023-08-07T15:40:12.206Z,3.35
2023-08-07T15:42:39.353Z,3.30
2023-08-07T15:45:07.048Z,3.78
2023-08-07T15:47:34.640Z,3.40
2023-08-07T15:50:01.798Z,3.45
2023-08-07T15:52:31.106Z,3.50
2023-08-07T15:54:58.180Z,3.35
2023-08-07T15:57:26.836Z,3.33
2023-08-07T15:59:54.293Z,3.15
2023-08-07T16:02:21.448Z,3.38
2023-08-07T16:04:48.480Z,3.20
2023-08-07T16:07:15.638Z,3.17
2023-08-07T16:09:42.836Z,3.28
2023-08-07T16:12:10.136Z,3.50
2023-08-07T16:14:39.267Z,3.25
2023-08-07T16:17:07.062Z,3.22
2023-08-07T16:19:36.756Z,3.13
2023-08-07T16:22:04.054Z,3.17
2023-08-07T16:24:31.056Z,3.78
2023-08-07T16:26:58.438Z,3.08
2023-08-07T16:29:26.703Z,2.95
2023-08-07T16:31:54.602Z,3.47
2023-08-07T16:34:21.694Z,3.60
2023-08-07T16:36:48.795Z,3.38
2023-08-07T16:39:15.930Z,3.13
2023-08-07T16:41:46.808Z,3.63
2023-08-07T16:44:14.084Z,3.40
2023-08-07T16:46:41.414Z,3.33
2023-08-07T16:49:08.508Z,3.47
2023-08-07T16:51:35.719Z,3.22
2023-08-07T16:54:03.187Z,3.40
2023-08-07T16:56:30.391Z,3.60
2023-08-07T16:58:59.100Z,3.55
2023-08-07T17:01:26.754Z,3.15
2023-08-07T17:03:53.872Z,3.97
2023-08-07T17:06:21.087Z,3.58
2023-08-07T17:08:50.944Z,4.45
2023-08-07T17:11:18.206Z,3.42
2023-08-07T17:13:45.555Z,2.95
2023-08-07T17:16:12.618Z,3.85
2023-08-07T17:18:39.817Z,4.15
2023-08-07T17:21:06.864Z,3.25
2023-08-07T17:23:33.888Z,4.13
2023-08-07T17:26:02.711Z,3.90
2023-08-07T17:28:30.812Z,4.45
2023-08-07T17:30:58.570Z,4.30
2023-08-07T17:33:25.753Z,3.33
2023-08-07T17:35:52.835Z,3.10
2023-08-07T17:38:20.113Z,3.45
2023-08-07T17:40:48.901Z,3.65
2023-08-07T17:43:16.839Z,3.63
2023-08-07T17:45:43.888Z,4.80
2023-08-07T17:48:11.051Z,3.78
2023-08-07T17:50:38.505Z,5.20
2023-08-07T17:53:05.759Z,4.18
2023-08-07T17:55:32.964Z,3.70
2023-08-07T17:58:00.042Z,3.80
2023-08-07T18:00:27.338Z,4.70
2023-08-07T18:02:55.049Z,4.03
2023-08-07T18:05:23.597Z,3.47
2023-08-07T18:07:51.895Z,4.10
2023-08-07T18:10:19.090Z,4.18
2023-08-07T18:12:46.188Z,4.07
2023-08-07T18:15:13.270Z,3.83
2023-08-07T18:17:40.353Z,3.95
2023-08-07T18:20:08.854Z,4.15
2023-08-07T18:22:35.808Z,4.38
2023-08-07T18:25:02.807Z,3.85
2023-08-07T18:27:31.267Z,4.32
2023-08-07T18:29:58.870Z,4.50
2023-08-07T18:32:26.050Z,3.92
2023-08-07T18:34:53.380Z,4.00
2023-08-07T18:37:21.170Z,4.45
2023-08-07T18:39:48.142Z,3.85
2023-08-07T18:42:15.162Z,5.50
2023-08-07T18:44:42.195Z,3.95
2023-08-07T18:47:09.231Z,4.13
2023-08-07T18:49:36.209Z,4.63
2023-08-07T18:52:05.549Z,4.80
2023-08-07T18:54:32.844Z,4.10
2023-08-07T18:57:01.263Z,3.88
2023-08-07T18:59:30.374Z,4.22
2023-08-07T19:01:57.572Z,3.60
2023-08-07T19:04:24.560Z,4.32
2023-08-07T19:06:51.925Z,4.20
2023-08-07T19:09:19.036Z,3.42
2023-08-07T19:11:46.204Z,3.95
2023-08-07T19:14:13.172Z,4.00
2023-08-07T19:17:08.717Z,4.57
2023-08-07T19:19:36.708Z,3.53
2023-08-07T19:22:04.939Z,3.95
2023-08-07T19:24:32.039Z,3.88
2023-08-07T19:26:59.560Z,4.03
2023-08-07T19:29:26.975Z,4.05
2023-08-07T19:31:54.033Z,3.75
2023-08-07T19:34:21.177Z,3.83
2023-08-07T19:36:50.993Z,4.20
2023-08-07T19:39:18.913Z,4.63
2023-08-07T19:41:50.479Z,4.53
2023-08-07T19:44:17.499Z,3.83
2023-08-07T19:46:44.522Z,3.95
2023-08-07T19:49:13.668Z,4.05
2023-08-07T19:51:40.718Z,3.70
2023-08-07T19:54:08.337Z,4.28
2023-08-07T19:56:36.963Z,4.57
2023-08-07T19:59:09.447Z,4.32
2023-08-07T20:01:36.885Z,4.63
2023-08-07T20:04:05.280Z,3.35
2023-08-07T20:06:38.324Z,3.90
2023-08-07T20:09:12.898Z,4.00
2023-08-07T20:11:40.003Z,3.40
2023-08-07T20:14:07.171Z,3.53
2023-08-07T20:16:34.634Z,3.40
2023-08-07T20:19:01.853Z,3.78
2023-08-07T20:21:29.254Z,4.22
2023-08-07T20:23:56.479Z,3.50
2023-08-07T20:26:25.323Z,4.18
2023-08-07T20:28:52.453Z,3.03
2023-08-07T20:31:19.701Z,3.17
2023-08-07T20:33:46.814Z,3.83
2023-08-07T20:36:14.256Z,3.60
2023-08-07T20:38:41.244Z,3.72
2023-08-07T20:41:09.553Z,4.22
2023-08-07T20:43:36.552Z,3.67
2023-08-07T20:46:03.710Z,3.03
2023-08-07T20:48:30.780Z,3.47
2023-08-07T20:50:58.162Z,3.63
2023-08-07T20:53:25.193Z,3.47
2023-08-07T20:55:52.213Z,4.30
2023-08-07T20:58:19.314Z,3.58
2023-08-07T21:00:46.302Z,4.22
2023-08-07T21:03:13.249Z,4.05
2023-08-07T21:05:40.332Z,3.40
2023-08-07T21:08:07.389Z,3.88
2023-08-07T21:10:34.457Z,3.47
2023-08-07T21:13:01.487Z,3.55
2023-08-07T21:15:28.639Z,3.13
2023-08-07T21:17:58.163Z,3.15
2023-08-07T21:20:25.938Z,3.70
2023-08-07T21:22:54.234Z,3.67
2023-08-07T21:25:21.804Z,3.80
2023-08-07T21:27:49.007Z,3.30
2023-08-07T21:30:16.111Z,3.67
2023-08-07T21:32:45.282Z,4.63
2023-08-07T21:35:12.916Z,3.88
2023-08-07T21:37:41.031Z,4.32
2023-08-07T21:40:10.215Z,4.35
2023-08-07T21:42:37.316Z,3.88
2023-08-07T21:45:06.837Z,2.97
2023-08-07T21:47:34.431Z,2.85
2023-08-07T21:50:01.521Z,4.35
2023-08-07T21:52:29.169Z,4.15
2023-08-07T21:54:59.113Z,4.10
2023-08-07T21:57:26.372Z,3.38
2023-08-07T21:59:53.391Z,3.60
2023-08-07T22:02:20.376Z,2.88
2023-08-07T22:04:47.479Z,3.05
2023-08-07T22:07:14.493Z,2.90
2023-08-07T22:09:41.744Z,3.30
2023-08-07T22:12:09.120Z,3.28
2023-08-07T22:14:36.180Z,3.90
2023-08-07T22:17:03.385Z,3.72
2023-08-07T22:19:30.407Z,3.35
2023-08-07T22:21:57.743Z,3.08
2023-08-07T22:24:25.365Z,3.85
2023-08-07T22:26:52.439Z,3.90
2023-08-07T22:29:19.760Z,3.10
2023-08-07T22:31:46.833Z,3.65
2023-08-07T22:34:14.021Z,3.63
2023-08-07T22:36:41.230Z,3.13
2023-08-07T22:39:08.181Z,3.65
2023-08-07T22:41:35.304Z,3.63
2023-08-07T22:44:02.365Z,3.15
2023-08-07T22:46:29.491Z,3.55
2023-08-07T22:48:56.695Z,3.40
2023-08-07T22:51:25.033Z,3.58
2023-08-07T22:53:52.221Z,2.90
2023-08-07T22:56:19.228Z,3.65
2023-08-07T22:58:47.556Z,3.30
2023-08-07T23:01:14.662Z,3.53
2023-08-07T23:03:43.441Z,3.10
2023-08-07T23:06:11.421Z,3.65
2023-08-07T23:08:38.420Z,3.63
2023-08-07T23:11:05.704Z,3.55
2023-08-07T23:13:32.792Z,3.30
2023-08-07T23:15:59.879Z,3.90
2023-08-07T23:18:27.344Z,3.10
2023-08-07T23:20:54.415Z,3.45
2023-08-07T23:23:21.517Z,3.92
2023-08-07T23:25:48.509Z,3.13
2023-08-07T23:28:15.477Z,3.13
2023-08-07T23:30:42.572Z,3.70
2023-08-07T23:33:09.721Z,2.92
2023-08-07T23:35:36.682Z,2.78
2023-08-07T23:38:04.620Z,3.40
2023-08-07T23:40:31.620Z,2.47
2023-08-07T23:42:58.608Z,3.78
2023-08-07T23:45:25.630Z,3.35
2023-08-07T23:47:52.633Z,3.00
2023-08-07T23:50:19.829Z,2.95
2023-08-07T23:52:46.974Z,3.05
2023-08-07T23:55:13.995Z,3.10
2023-08-07T23:57:41.215Z,2.60
